Time;durP1;ratioP1;P1;durP2;ratioP2;P2;SDS_P1;SDS_P2;PMS_P1;PMS_P2;Temp;Humidity;BMP_temperature;BMP_pressure;BME280_temperature;BME280_humidity;BME280_pressure;Samples;Min_cycle;Max_cycle;Signal;HPM_P1;HPM_P2
2021/10/23 00:01:02;;;;;;;1.77;1.15;;;8.30;99.90;;;;;;5007166;28;20049;-75
2021/10/23 00:03:27;;;;;;;1.63;1.02;;;8.30;99.90;;;;;;4992170;28;20065;-75
2021/10/23 00:05:54;;;;;;;1.00;0.88;;;8.30;99.90;;;;;;4990452;28;20113;-75
2021/10/23 00:08:19;;;;;;;1.05;0.93;;;8.40;99.90;;;;;;4992309;28;20101;-76
2021/10/23 00:10:45;;;;;;;1.10;0.80;;;8.40;99.90;;;;;;5006764;28;20025;-75
2021/10/23 00:13:11;;;;;;;1.20;0.80;;;8.40;99.90;;;;;;5007115;28;20505;-75
2021/10/23 00:15:36;;;;;;;1.35;0.75;;;8.40;99.90;;;;;;4991674;28;20045;-75
2021/10/23 00:18:03;;;;;;;1.30;1.02;;;8.40;99.90;;;;;;4992030;28;20089;-76
2021/10/23 00:20:28;;;;;;;1.65;1.08;;;8.40;99.90;;;;;;4992260;28;20046;-76
2021/10/23 00:22:54;;;;;;;1.38;0.73;;;8.40;99.90;;;;;;5006711;28;20054;-76
2021/10/23 00:25:20;;;;;;;3.22;0.95;;;8.50;99.90;;;;;;4992149;28;20470;-75
2021/10/23 00:27:46;;;;;;;2.25;1.33;;;8.50;99.90;;;;;;4991690;28;20030;-76
2021/10/23 00:30:13;;;;;;;0.95;0.80;;;8.60;99.90;;;;;;5007311;28;20026;-76
2021/10/23 00:32:39;;;;;;;1.48;1.00;;;8.60;99.90;;;;;;4991770;28;20022;-76
2021/10/23 00:35:06;;;;;;;1.77;1.15;;;8.60;99.90;;;;;;4991904;28;20437;-76
2021/10/23 00:37:32;;;;;;;3.03;1.08;;;8.70;99.90;;;;;;4992349;28;20051;-76
2021/10/23 00:39:57;;;;;;;3.30;1.27;;;8.70;99.90;;;;;;4993550;28;20105;-76
2021/10/23 00:42:23;;;;;;;1.45;1.17;;;8.60;99.90;;;;;;4995707;28;20054;-76
2021/10/23 00:44:49;;;;;;;1.42;0.75;;;8.60;99.90;;;;;;4994713;28;20018;-76
2021/10/23 00:47:18;;;;;;;1.70;1.02;;;8.60;99.90;;;;;;4995281;28;20025;-76
2021/10/23 00:49:52;;;;;;;0.90;0.80;;;8.60;99.90;;;;;;4994876;28;20034;-76
2021/10/23 00:52:19;;;;;;;2.30;0.93;;;8.60;99.90;;;;;;5010658;28;20023;-76
2021/10/23 00:54:45;;;;;;;2.92;1.20;;;8.50;99.90;;;;;;4994564;28;20110;-76
2021/10/23 00:57:11;;;;;;;2.05;1.08;;;8.50;99.90;;;;;;4995086;28;20093;-76
2021/10/23 00:59:36;;;;;;;1.25;0.98;;;8.50;99.90;;;;;;4994740;28;20471;-76
2021/10/23 01:02:03;;;;;;;2.90;1.15;;;8.50;99.90;;;;;;4995508;28;20030;-75
2021/10/23 01:04:29;;;;;;;2.35;1.20;;;8.50;99.90;;;;;;4995260;28;20024;-75
2021/10/23 01:06:55;;;;;;;2.55;1.00;;;8.40;99.90;;;;;;4994522;28;20014;-75
2021/10/23 01:09:21;;;;;;;2.38;1.17;;;8.40;99.90;;;;;;4995280;28;20033;-76
2021/10/23 01:11:48;;;;;;;1.80;1.00;;;8.40;99.90;;;;;;4994439;28;20394;-75
2021/10/23 01:14:17;;;;;;;3.17;1.20;;;8.40;99.90;;;;;;4995063;28;20022;-75
2021/10/23 01:16:44;;;;;;;1.50;1.00;;;8.40;99.90;;;;;;5009325;28;20415;-76
2021/10/23 01:19:10;;;;;;;2.60;1.38;;;8.40;99.90;;;;;;5009921;28;20022;-75
2021/10/23 01:21:38;;;;;;;2.17;1.20;;;8.30;99.90;;;;;;4994750;28;20045;-76
2021/10/23 01:24:08;;;;;;;1.33;0.93;;;8.30;99.90;;;;;;4995218;28;20014;-76
2021/10/23 01:26:35;;;;;;;2.40;1.13;;;8.30;99.90;;;;;;4995120;28;20029;-77
2021/10/23 01:29:02;;;;;;;1.10;0.90;;;8.30;99.90;;;;;;4994194;28;20034;-77
2021/10/23 01:31:29;;;;;;;2.25;1.02;;;8.30;99.90;;;;;;4994900;28;20021;-77
2021/10/23 01:33:56;;;;;;;2.25;1.30;;;8.20;99.90;;;;;;5009247;28;20022;-77
2021/10/23 01:36:22;;;;;;;3.20;1.10;;;8.20;99.90;;;;;;4994237;28;20054;-76
2021/10/23 01:38:49;;;;;;;2.78;0.90;;;8.10;99.90;;;;;;4994080;28;20116;-77
2021/10/23 01:41:15;;;;;;;1.60;1.20;;;8.10;99.90;;;;;;4994597;28;20455;-77
2021/10/23 01:43:42;;;;;;;3.08;1.10;;;8.10;99.90;;;;;;4993722;28;20022;-77
2021/10/23 01:46:08;;;;;;;3.75;1.15;;;8.10;99.90;;;;;;4994547;28;20080;-77
2021/10/23 01:48:35;;;;;;;3.10;1.08;;;8.10;99.90;;;;;;5009116;28;20022;-76
2021/10/23 01:51:01;;;;;;;2.00;1.05;;;8.10;99.90;;;;;;5008829;28;20359;-75
2021/10/23 01:53:27;;;;;;;0.98;0.88;;;8.10;99.90;;;;;;4994158;28;20022;-76
2021/10/23 01:55:53;;;;;;;2.15;1.02;;;8.10;99.90;;;;;;4993709;28;20106;-76
2021/10/23 01:58:19;;;;;;;2.40;0.90;;;8.00;99.90;;;;;;4994303;28;20020;-76
2021/10/23 02:00:45;;;;;;;2.63;1.02;;;8.00;99.90;;;;;;4993483;28;20030;-75
2021/10/23 02:03:11;;;;;;;1.75;0.85;;;8.00;99.90;;;;;;4994253;28;20076;-75
2021/10/23 02:05:37;;;;;;;2.20;1.20;;;8.00;99.90;;;;;;4994104;28;20105;-75
2021/10/23 02:08:02;;;;;;;1.67;0.90;;;8.00;99.90;;;;;;5008448;28;20021;-75
2021/10/23 02:10:28;;;;;;;2.00;0.98;;;8.00;99.90;;;;;;4993968;28;20026;-75
2021/10/23 02:12:54;;;;;;;2.40;1.10;;;8.00;99.90;;;;;;4993046;28;20293;-77
2021/10/23 02:15:19;;;;;;;2.08;0.95;;;8.00;99.90;;;;;;5008942;28;20018;-75
2021/10/23 02:17:45;;;;;;;3.17;1.30;;;8.00;99.90;;;;;;4993279;28;20402;-75
2021/10/23 02:20:12;;;;;;;1.52;0.90;;;8.00;99.90;;;;;;5008763;28;20490;-75
2021/10/23 02:22:39;;;;;;;2.30;1.33;;;8.00;99.90;;;;;;4993443;28;20097;-75
2021/10/23 02:25:06;;;;;;;2.20;1.20;;;8.00;99.90;;;;;;4993025;28;20032;-75
2021/10/23 02:27:32;;;;;;;1.25;0.90;;;8.00;99.90;;;;;;4993358;28;20069;-74
2021/10/23 02:29:58;;;;;;;2.67;1.30;;;8.00;99.90;;;;;;5008050;28;20022;-76
2021/10/23 02:32:24;;;;;;;2.63;1.02;;;7.90;99.90;;;;;;4993577;28;20030;-76
2021/10/23 02:34:50;;;;;;;2.95;1.10;;;7.90;99.90;;;;;;5008037;28;20022;-75
2021/10/23 02:37:17;;;;;;;1.42;0.98;;;8.00;99.90;;;;;;4993627;28;20061;-76
2021/10/23 02:39:43;;;;;;;1.83;1.30;;;8.00;99.90;;;;;;4992925;28;20069;-73
2021/10/23 02:42:09;;;;;;;2.40;1.10;;;8.00;99.90;;;;;;4993693;28;20026;-75
2021/10/23 02:44:34;;;;;;;2.22;1.27;;;8.10;99.90;;;;;;4993302;28;20016;-75
2021/10/23 02:47:00;;;;;;;1.17;0.80;;;8.10;99.90;;;;;;5007724;28;20478;-75
2021/10/23 02:49:26;;;;;;;2.03;1.10;;;8.10;99.90;;;;;;4993326;28;20173;-76
2021/10/23 02:51:53;;;;;;;2.60;1.30;;;8.10;99.90;;;;;;4992791;28;20098;-75
2021/10/23 02:54:18;;;;;;;1.48;1.20;;;8.10;99.90;;;;;;4993273;28;20510;-76
2021/10/23 02:56:44;;;;;;;1.35;1.08;;;8.10;99.90;;;;;;5007750;28;20023;-76
2021/10/23 02:59:10;;;;;;;2.05;1.10;;;8.10;99.90;;;;;;5008195;28;20030;-76
2021/10/23 03:01:36;;;;;;;2.65;1.20;;;8.10;99.90;;;;;;4992654;28;20414;-75
2021/10/23 03:04:02;;;;;;;1.40;1.20;;;8.10;99.90;;;;;;5007630;28;20109;-77
2021/10/23 03:06:28;;;;;;;2.47;1.08;;;8.10;99.90;;;;;;4993089;28;20101;-77
2021/10/23 03:08:54;;;;;;;3.15;1.67;;;8.10;99.90;;;;;;4991129;28;20133;-77
2021/10/23 03:11:20;;;;;;;1.58;1.20;;;8.00;99.90;;;;;;5008075;28;20018;-77
2021/10/23 03:13:45;;;;;;;1.80;1.27;;;8.10;99.90;;;;;;4990790;28;20014;-77
2021/10/23 03:16:11;;;;;;;2.13;1.20;;;8.10;99.90;;;;;;5008169;28;20022;-77
2021/10/23 03:18:37;;;;;;;2.78;1.17;;;8.10;99.90;;;;;;5007818;28;20516;-78
2021/10/23 03:21:04;;;;;;;2.17;1.20;;;8.10;99.90;;;;;;4990579;28;20010;-75
2021/10/23 03:23:30;;;;;;;2.03;1.10;;;8.00;99.90;;;;;;5007841;28;20022;-77
2021/10/23 03:25:56;;;;;;;2.03;1.33;;;8.00;99.90;;;;;;5007301;28;20113;-75
2021/10/23 03:28:21;;;;;;;2.20;1.25;;;7.90;99.90;;;;;;4992819;28;20022;-76
2021/10/23 03:30:47;;;;;;;1.77;1.10;;;7.90;99.90;;;;;;4992143;28;20077;-75
2021/10/23 03:33:13;;;;;;;2.63;1.10;;;8.00;99.90;;;;;;4992670;28;20034;-75
2021/10/23 03:35:39;;;;;;;2.22;1.23;;;8.10;99.90;;;;;;4992890;28;20469;-75
2021/10/23 03:38:05;;;;;;;2.05;1.30;;;8.00;99.90;;;;;;4991737;28;20414;-75
2021/10/23 03:40:30;;;;;;;2.97;1.30;;;8.10;99.90;;;;;;4992304;28;20027;-75
2021/10/23 03:42:56;;;;;;;2.85;1.40;;;8.10;99.90;;;;;;4990672;28;20037;-75
2021/10/23 03:45:22;;;;;;;1.88;1.23;;;8.10;99.90;;;;;;4992693;28;20033;-75
2021/10/23 03:47:47;;;;;;;1.75;1.20;;;8.10;99.90;;;;;;5006965;28;20366;-75
2021/10/23 03:50:13;;;;;;;3.15;1.40;;;8.00;99.90;;;;;;4992506;28;20076;-75
2021/10/23 03:52:39;;;;;;;2.33;1.30;;;8.00;99.90;;;;;;5007594;28;20359;-75
2021/10/23 03:55:06;;;;;;;2.83;1.48;;;7.90;99.90;;;;;;5006828;28;20069;-75
2021/10/23 03:57:31;;;;;;;2.03;1.20;;;7.90;99.90;;;;;;4992513;28;20015;-75
2021/10/23 03:59:57;;;;;;;3.38;1.23;;;7.90;99.90;;;;;;4991877;28;20045;-75
2021/10/23 04:02:22;;;;;;;4.28;1.40;;;7.80;99.90;;;;;;5007401;28;20465;-75
2021/10/23 04:04:48;;;;;;;2.63;1.30;;;7.80;99.90;;;;;;5006536;28;20015;-75
2021/10/23 04:07:14;;;;;;;2.15;1.27;;;7.80;99.90;;;;;;5007383;28;20022;-75
2021/10/23 04:09:40;;;;;;;3.28;1.45;;;7.70;99.90;;;;;;4991228;28;20027;-75
2021/10/23 04:12:06;;;;;;;2.90;1.38;;;7.70;99.90;;;;;;4991791;28;20482;-75
2021/10/23 04:14:32;;;;;;;2.80;1.25;;;7.70;99.90;;;;;;4993918;28;20371;-75
2021/10/23 04:16:57;;;;;;;2.33;1.30;;;7.70;99.90;;;;;;4995458;28;20080;-75
2021/10/23 04:19:23;;;;;;;1.52;1.30;;;7.70;99.90;;;;;;4995813;28;20530;-75
2021/10/23 04:21:49;;;;;;;2.45;1.30;;;7.70;99.90;;;;;;4996000;28;20481;-75
2021/10/23 04:24:14;;;;;;;2.45;1.33;;;7.70;99.90;;;;;;5011046;28;20064;-75
2021/10/23 04:26:40;;;;;;;2.75;1.42;;;7.70;99.90;;;;;;4995939;28;20467;-74
2021/10/23 04:29:06;;;;;;;2.28;1.15;;;7.70;99.90;;;;;;4995298;28;20037;-75
2021/10/23 04:31:32;;;;;;;4.18;1.60;;;7.70;99.90;;;;;;4995838;28;20026;-75
2021/10/23 04:33:59;;;;;;;1.67;1.25;;;7.60;99.90;;;;;;4995204;28;20015;-75
2021/10/23 04:36:25;;;;;;;3.88;1.65;;;7.70;99.90;;;;;;4995542;28;20051;-75
2021/10/23 04:38:51;;;;;;;2.20;1.40;;;7.70;99.90;;;;;;4995174;28;20018;-76
2021/10/23 04:41:17;;;;;;;2.90;1.48;;;7.70;99.90;;;;;;4995497;28;20015;-75
2021/10/23 04:43:43;;;;;;;2.08;1.25;;;7.70;99.90;;;;;;4995575;28;20022;-75
2021/10/23 04:46:08;;;;;;;1.50;1.10;;;7.60;99.90;;;;;;4994430;28;20049;-75
2021/10/23 04:48:35;;;;;;;2.72;1.52;;;7.60;99.90;;;;;;4995034;28;20451;-75
2021/10/23 04:51:02;;;;;;;2.90;1.38;;;7.60;99.90;;;;;;4994863;28;20030;-75
2021/10/23 04:53:27;;;;;;;4.22;1.60;;;7.60;99.90;;;;;;4995593;28;20370;-75
2021/10/23 04:55:53;;;;;;;2.83;1.50;;;7.60;99.90;;;;;;4993620;28;20057;-75
2021/10/23 04:58:19;;;;;;;2.70;1.48;;;7.60;99.90;;;;;;4995410;28;20439;-75
2021/10/23 05:00:45;;;;;;;4.07;1.60;;;7.50;99.90;;;;;;4995391;28;20027;-75
2021/10/23 05:03:11;;;;;;;3.47;1.50;;;7.50;99.90;;;;;;5009686;28;20022;-76
2021/10/23 05:05:36;;;;;;;2.60;1.30;;;7.50;99.90;;;;;;4995283;28;20022;-75
2021/10/23 05:08:02;;;;;;;2.88;1.40;;;7.50;99.90;;;;;;4994316;28;20026;-75
2021/10/23 05:10:29;;;;;;;2.60;1.30;;;7.40;99.90;;;;;;4995217;28;20033;-75
2021/10/23 05:12:54;;;;;;;3.38;1.50;;;7.50;99.90;;;;;;4994292;28;20029;-75
2021/10/23 05:15:20;;;;;;;3.92;1.40;;;7.50;99.90;;;;;;4995066;28;20026;-76
2021/10/23 05:17:46;;;;;;;2.30;1.45;;;7.40;99.90;;;;;;4995114;28;20439;-76
2021/10/23 05:20:12;;;;;;;3.30;1.67;;;7.40;99.90;;;;;;4993237;28;20169;-76
2021/10/23 05:22:39;;;;;;;2.95;1.40;;;7.40;99.90;;;;;;4994978;28;20034;-76
2021/10/23 05:25:05;;;;;;;3.75;1.55;;;7.40;99.90;;;;;;4993950;28;20021;-75
2021/10/23 05:27:31;;;;;;;3.22;1.50;;;7.40;99.90;;;;;;4994594;28;20474;-76
2021/10/23 05:29:58;;;;;;;4.07;1.80;;;7.50;99.90;;;;;;4994199;28;20037;-76
2021/10/23 05:32:23;;;;;;;4.50;1.70;;;7.50;99.90;;;;;;4995002;28;20022;-76
2021/10/23 05:34:49;;;;;;;3.80;1.98;;;7.50;99.90;;;;;;4994483;28;20391;-76
2021/10/23 05:37:15;;;;;;;4.30;1.60;;;7.50;99.90;;;;;;4992642;28;20478;-76
2021/10/23 05:39:41;;;;;;;2.97;1.50;;;7.50;99.90;;;;;;5009571;28;20049;-75
2021/10/23 05:42:07;;;;;;;3.25;1.55;;;7.50;99.90;;;;;;4994325;28;20030;-76
2021/10/23 05:44:33;;;;;;;2.35;1.33;;;7.50;99.90;;;;;;5009852;28;20370;-75
2021/10/23 05:46:58;;;;;;;2.70;1.50;;;7.50;99.90;;;;;;4992642;28;20414;-75
2021/10/23 05:49:24;;;;;;;3.67;1.92;;;7.50;99.90;;;;;;4993146;28;20467;-75
2021/10/23 05:51:50;;;;;;;5.10;1.75;;;7.40;99.90;;;;;;4994371;28;20026;-75
2021/10/23 05:54:16;;;;;;;3.78;1.67;;;7.50;99.90;;;;;;4993703;28;20026;-76
2021/10/23 05:56:42;;;;;;;3.35;1.80;;;7.50;99.90;;;;;;4992965;28;20022;-75
2021/10/23 05:59:11;;;;;;;2.40;1.52;;;7.50;99.90;;;;;;5008639;28;20058;-75
2021/10/23 06:01:39;;;;;;;3.65;1.67;;;7.50;99.90;;;;;;4994221;28;20015;-75
2021/10/23 06:04:05;;;;;;;3.33;1.85;;;7.50;99.90;;;;;;4993414;28;20015;-75
2021/10/23 06:06:31;;;;;;;2.60;1.70;;;7.50;99.90;;;;;;4994075;28;20019;-75
2021/10/23 06:08:57;;;;;;;2.33;1.50;;;7.50;99.90;;;;;;4992482;28;20026;-75
2021/10/23 06:11:22;;;;;;;3.55;1.50;;;7.50;99.90;;;;;;4992658;28;20026;-75
2021/10/23 06:13:50;;;;;;;2.45;1.25;;;7.50;99.90;;;;;;4994086;28;20018;-76
2021/10/23 06:16:16;;;;;;;3.35;1.50;;;7.60;99.90;;;;;;4991975;28;20109;-76
2021/10/23 06:18:42;;;;;;;4.18;1.65;;;7.60;99.90;;;;;;4992511;28;20050;-76
2021/10/23 06:21:08;;;;;;;3.80;1.70;;;7.60;99.90;;;;;;4993125;28;20030;-76
2021/10/23 06:23:33;;;;;;;2.85;1.60;;;7.60;99.90;;;;;;4993824;28;20451;-76
2021/10/23 06:26:00;;;;;;;3.03;1.60;;;7.60;99.90;;;;;;4993250;28;20049;-76
2021/10/23 06:28:27;;;;;;;3.22;1.60;;;7.60;99.90;;;;;;4993374;28;20015;-75
2021/10/23 06:30:53;;;;;;;2.95;1.60;;;7.60;99.90;;;;;;4992413;28;20026;-76
2021/10/23 06:33:19;;;;;;;2.38;1.77;;;7.60;99.90;;;;;;4991763;28;20545;-76
2021/10/23 06:35:46;;;;;;;3.47;1.80;;;7.60;99.90;;;;;;5008438;28;20019;-76
2021/10/23 06:38:11;;;;;;;3.75;1.65;;;7.60;99.90;;;;;;4991964;28;20054;-76
2021/10/23 06:40:37;;;;;;;2.83;1.58;;;7.60;99.90;;;;;;4993375;28;20184;-76
2021/10/23 06:43:03;;;;;;;2.17;1.40;;;7.60;99.90;;;;;;4991507;28;20019;-76
2021/10/23 06:45:29;;;;;;;3.50;1.63;;;7.60;99.90;;;;;;4993252;28;20505;-76
2021/10/23 06:47:56;;;;;;;2.55;1.45;;;7.60;99.90;;;;;;4993675;28;20018;-75
2021/10/23 06:50:22;;;;;;;2.53;1.42;;;7.70;99.90;;;;;;4992764;28;20022;-76
2021/10/23 06:52:48;;;;;;;2.88;1.50;;;7.70;99.90;;;;;;4992951;28;20019;-76
2021/10/23 06:55:13;;;;;;;3.22;1.50;;;7.80;99.90;;;;;;5007700;28;20404;-76
2021/10/23 06:57:39;;;;;;;4.45;1.92;;;7.80;99.90;;;;;;4991982;28;20019;-76
2021/10/23 07:00:06;;;;;;;4.85;1.80;;;7.80;99.90;;;;;;4992418;28;20031;-75
2021/10/23 07:02:40;;;;;;;3.53;1.58;;;8.00;99.90;;;;;;4991502;28;20026;-75
2021/10/23 07:05:13;;;;;;;2.58;1.65;;;8.00;99.90;;;;;;4992434;28;20098;-75
2021/10/23 07:07:40;;;;;;;2.45;1.52;;;8.00;99.90;;;;;;4992965;28;20018;-76
2021/10/23 07:10:08;;;;;;;2.50;1.40;;;8.10;99.90;;;;;;4992526;28;20019;-76
2021/10/23 07:12:34;;;;;;;1.98;1.30;;;8.10;99.90;;;;;;4992907;28;20033;-75
2021/10/23 07:15:00;;;;;;;3.15;1.70;;;8.10;99.90;;;;;;4992899;28;20037;-75
2021/10/23 07:17:26;;;;;;;6.13;2.00;;;8.10;99.90;;;;;;4992585;28;20097;-75
2021/10/23 07:19:54;;;;;;;4.90;1.88;;;8.10;99.90;;;;;;4992987;28;20113;-75
2021/10/23 07:22:20;;;;;;;4.88;2.47;;;8.20;99.90;;;;;;4990939;28;20022;-76
2021/10/23 07:24:46;;;;;;;5.15;2.33;;;8.20;99.90;;;;;;4991840;28;20022;-75
2021/10/23 07:27:12;;;;;;;4.15;2.00;;;8.10;99.90;;;;;;4992121;28;20105;-75
2021/10/23 07:29:38;;;;;;;4.22;2.38;;;8.10;99.90;;;;;;4991368;28;20030;-76
2021/10/23 07:32:04;;;;;;;4.85;2.42;;;8.20;99.90;;;;;;4990846;28;20018;-76
2021/10/23 07:34:29;;;;;;;6.72;2.47;;;8.20;99.90;;;;;;4992995;28;20030;-75
2021/10/23 07:36:55;;;;;;;5.40;2.30;;;8.20;99.90;;;;;;4992865;28;20069;-76
2021/10/23 07:39:21;;;;;;;4.82;2.30;;;8.20;99.90;;;;;;4991746;28;20058;-75
2021/10/23 07:41:47;;;;;;;5.68;2.30;;;8.20;99.90;;;;;;4991370;28;20398;-75
2021/10/23 07:44:13;;;;;;;5.53;2.22;;;8.30;99.90;;;;;;4990829;28;20058;-75
2021/10/23 07:46:39;;;;;;;5.50;2.45;;;8.30;99.90;;;;;;4991446;28;20509;-75
2021/10/23 07:49:06;;;;;;;5.30;2.58;;;8.40;99.90;;;;;;4993808;28;20018;-77
2021/10/23 07:51:38;;;;;;;8.18;2.97;;;8.40;99.90;;;;;;4995288;28;20030;-77
2021/10/23 07:54:05;;;;;;;4.93;2.35;;;8.40;99.90;;;;;;4996137;28;20022;-78
2021/10/23 07:56:35;;;;;;;6.13;2.78;;;8.50;99.90;;;;;;4996451;28;20482;-77
2021/10/23 07:59:02;;;;;;;7.30;2.92;;;8.50;99.90;;;;;;4996351;28;20018;-77
2021/10/23 08:01:27;;;;;;;5.25;2.38;;;8.60;99.90;;;;;;4995742;28;20018;-77
2021/10/23 08:03:54;;;;;;;4.90;2.45;;;8.60;99.90;;;;;;4994979;28;20022;-74
2021/10/23 08:06:20;;;;;;;3.67;2.35;;;8.60;99.90;;;;;;4996094;28;20021;-75
2021/10/23 08:08:46;;;;;;;4.75;2.35;;;8.70;99.90;;;;;;4996168;28;20027;-75
2021/10/23 08:11:12;;;;;;;3.50;2.13;;;8.80;99.90;;;;;;4995450;28;20019;-75
2021/10/23 08:13:37;;;;;;;6.18;2.83;;;8.80;99.90;;;;;;4995055;28;20018;-75
2021/10/23 08:16:04;;;;;;;5.68;2.28;;;8.90;99.90;;;;;;4995941;28;20484;-75
2021/10/23 08:18:30;;;;;;;4.93;2.47;;;8.90;99.90;;;;;;4995471;28;20447;-74
2021/10/23 08:20:56;;;;;;;6.40;2.50;;;9.00;99.90;;;;;;4995883;28;20370;-76
2021/10/23 08:23:23;;;;;;;4.80;2.38;;;9.00;99.90;;;;;;4995265;28;20034;-75
2021/10/23 08:25:51;;;;;;;7.00;2.58;;;9.10;99.90;;;;;;4995829;28;20077;-76
2021/10/23 08:28:16;;;;;;;8.45;2.58;;;9.20;99.90;;;;;;4993983;28;20403;-76
2021/10/23 08:30:42;;;;;;;4.63;2.20;;;9.20;99.90;;;;;;4994594;28;20064;-74
2021/10/23 08:33:08;;;;;;;5.43;2.75;;;9.20;99.90;;;;;;4995501;28;20308;-76
2021/10/23 08:35:33;;;;;;;4.75;2.40;;;9.30;99.90;;;;;;4995630;28;20443;-75
2021/10/23 08:37:59;;;;;;;5.65;2.63;;;9.40;99.90;;;;;;5010432;28;20135;-75
2021/10/23 08:40:27;;;;;;;6.07;3.03;;;9.40;99.90;;;;;;4995033;28;20033;-76
2021/10/23 08:42:53;;;;;;;6.05;2.65;;;9.40;99.90;;;;;;4995706;28;20019;-75
2021/10/23 08:45:19;;;;;;;5.60;2.17;;;9.40;99.90;;;;;;4993617;28;20014;-75
2021/10/23 08:47:46;;;;;;;6.60;2.38;;;9.50;99.90;;;;;;4993916;28;20024;-75
2021/10/23 08:50:15;;;;;;;7.45;2.83;;;9.40;99.90;;;;;;4994865;28;20068;-76
2021/10/23 08:52:45;;;;;;;7.70;2.67;;;9.50;99.90;;;;;;4995432;28;20463;-75
2021/10/23 08:55:10;;;;;;;7.13;2.90;;;9.50;99.90;;;;;;4994877;28;20022;-76
2021/10/23 08:57:36;;;;;;;6.07;3.10;;;9.50;99.90;;;;;;4995230;28;20026;-76
2021/10/23 09:00:04;;;;;;;7.53;2.92;;;9.50;99.90;;;;;;4994423;28;20084;-76
2021/10/23 09:02:30;;;;;;;7.57;3.45;;;9.60;99.90;;;;;;4994717;28;20026;-76
2021/10/23 09:04:56;;;;;;;6.78;2.78;;;9.60;99.90;;;;;;4995106;28;20027;-76
2021/10/23 09:07:23;;;;;;;6.40;2.75;;;9.70;99.90;;;;;;4994326;28;20367;-76
2021/10/23 09:09:55;;;;;;;5.35;2.58;;;9.80;99.90;;;;;;4993881;28;20030;-76
2021/10/23 09:12:26;;;;;;;6.90;2.92;;;9.80;99.90;;;;;;4994552;28;20022;-75
2021/10/23 09:14:58;;;;;;;8.38;3.28;;;9.80;99.90;;;;;;4993740;28;20034;-76
2021/10/23 09:17:23;;;;;;;7.75;3.45;;;9.90;99.90;;;;;;4992955;28;20068;-76
2021/10/23 09:19:50;;;;;;;6.75;3.10;;;9.90;99.90;;;;;;4993459;28;20042;-75
2021/10/23 09:22:28;;;;;;;9.77;3.50;;;9.90;99.90;;;;;;4992958;28;20021;-75
2021/10/23 09:25:14;;;;;;;7.65;2.72;;;10.00;99.90;;;;;;4994797;28;20022;-76
2021/10/23 09:27:54;;;;;;;6.30;2.95;;;10.00;99.90;;;;;;4994562;28;20109;-76
2021/10/23 09:30:30;;;;;;;9.35;3.85;;;10.00;99.90;;;;;;4994101;28;20168;-76
2021/10/23 09:33:05;;;;;;;6.93;3.65;;;10.00;99.90;;;;;;4993626;28;20047;-76
2021/10/23 09:35:31;;;;;;;8.68;3.40;;;10.10;99.90;;;;;;4994085;28;20427;-76
2021/10/23 09:37:59;;;;;;;7.88;3.47;;;10.10;99.90;;;;;;4994252;28;20117;-76
2021/10/23 09:40:26;;;;;;;6.50;3.00;;;10.20;99.90;;;;;;4993877;28;20578;-75
2021/10/23 09:43:17;;;;;;;6.75;3.25;;;10.20;99.90;;;;;;4994601;28;20141;-75
2021/10/23 09:45:55;;;;;;;6.70;3.13;;;10.20;99.90;;;;;;4993115;28;20374;-77
2021/10/23 09:48:43;;;;;;;6.75;2.90;;;10.30;99.90;;;;;;4992778;28;20057;-74
2021/10/23 09:51:20;;;;;;;7.63;2.78;;;10.40;99.90;;;;;;4993085;28;20451;-77
2021/10/23 09:53:56;;;;;;;5.88;2.78;;;10.40;99.90;;;;;;4994421;28;20018;-77
2021/10/23 09:56:36;;;;;;;5.97;2.92;;;10.50;99.90;;;;;;4993766;28;20019;-77
2021/10/23 09:59:22;;;;;;;6.53;3.17;;;10.60;99.90;;;;;;4992616;28;20023;-77
2021/10/23 10:01:48;;;;;;;7.55;3.17;;;10.60;99.90;;;;;;4993075;28;20030;-77
2021/10/23 10:04:15;;;;;;;7.80;3.20;;;10.70;99.90;;;;;;4993453;28;20451;-77
2021/10/23 10:06:42;;;;;;;5.95;2.95;;;10.80;99.90;;;;;;4994114;28;20053;-77
2021/10/23 10:09:27;;;;;;;6.80;3.20;;;10.80;99.90;;;;;;4994040;28;20084;-77
2021/10/23 10:11:55;;;;;;;8.95;3.38;;;10.80;99.90;;;;;;4993010;28;20451;-77
2021/10/23 10:14:24;;;;;;;11.20;3.35;;;10.90;99.90;;;;;;4993251;28;20018;-75
2021/10/23 10:16:53;;;;;;;7.65;2.67;;;10.90;99.90;;;;;;4993783;28;20076;-75
2021/10/23 10:19:21;;;;;;;6.80;3.75;;;11.00;99.90;;;;;;4991856;28;20091;-75
2021/10/23 10:21:48;;;;;;;7.70;3.42;;;11.00;99.90;;;;;;4993909;28;20022;-76
2021/10/23 10:24:43;;;;;;;10.18;3.92;;;11.00;99.90;;;;;;4992187;28;20030;-76
2021/10/23 10:27:12;;;;;;;10.68;4.32;;;11.10;99.90;;;;;;4992717;28;20038;-75
2021/10/23 10:29:43;;;;;;;9.48;3.92;;;11.20;99.90;;;;;;4993220;28;20097;-75
2021/10/23 10:32:38;;;;;;;11.60;4.50;;;11.30;99.90;;;;;;4993651;28;20022;-76
2021/10/23 10:42:40;;;;;;;11.02;3.97;;;11.40;99.90;;;;;;4992867;28;20445;-76
2021/10/23 10:43:32;;;;;;;9.02;3.50;;;11.30;99.90;;;;;;4992486;28;20034;-76
2021/10/23 10:45:59;;;;;;;9.52;3.38;;;11.20;99.90;;;;;;4992049;28;20109;-76
2021/10/23 10:48:29;;;;;;;8.23;3.72;;;11.20;99.90;;;;;;5007641;28;20453;-76
2021/10/23 10:51:05;;;;;;;9.63;3.55;;;11.30;99.90;;;;;;4993383;28;20018;-76
2021/10/23 10:53:33;;;;;;;5.97;3.22;;;11.30;99.90;;;;;;4991356;28;20030;-76
2021/10/23 10:55:59;;;;;;;9.18;3.33;;;11.40;99.90;;;;;;4993043;28;20352;-76
2021/10/23 10:58:43;;;;;;;8.95;3.70;;;11.50;99.90;;;;;;4992279;28;20081;-76
2021/10/23 11:01:22;;;;;;;11.40;5.00;;;11.70;99.90;;;;;;4991569;28;20154;-76
2021/10/23 11:04:03;;;;;;;12.02;4.50;;;11.90;99.90;;;;;;4993099;28;20495;-76
2021/10/23 11:09:14;;;;;;;12.60;4.47;;;12.10;99.90;;;;;;4993035;28;20110;-75
2021/10/23 11:11:49;;;;;;;7.07;3.92;;;12.10;99.90;;;;;;4991014;28;20027;-76
2021/10/23 11:17:17;;;;;;;9.23;3.97;;;12.30;99.90;;;;;;4991962;28;20026;-76
2021/10/23 11:19:54;;;;;;;7.88;3.63;;;12.40;99.90;;;;;;4992907;28;20026;-76
2021/10/23 11:22:30;;;;;;;9.10;3.10;;;12.40;99.90;;;;;;4990677;28;20118;-77
2021/10/23 11:25:03;;;;;;;8.10;3.08;;;12.50;99.90;;;;;;4992677;28;20069;-76
2021/10/23 11:27:31;;;;;;;8.23;3.30;;;12.50;99.90;;;;;;4990781;28;20035;-76
2021/10/23 11:30:25;;;;;;;10.05;3.55;;;12.60;99.90;;;;;;4991225;28;20026;-77
2021/10/23 11:32:56;;;;;;;8.23;2.92;;;12.60;99.90;;;;;;4992239;28;20045;-77
2021/10/23 11:35:46;;;;;;;7.38;3.08;;;12.60;99.90;;;;;;4990820;28;20018;-77
2021/10/23 11:38:26;;;;;;;7.65;3.10;;;12.60;99.90;;;;;;4991031;28;20042;-77
2021/10/23 11:40:57;;;;;;;10.15;3.88;;;12.60;99.90;;;;;;4992777;28;20080;-77
2021/10/23 11:43:23;;;;;;;7.68;3.00;;;12.70;99.90;;;;;;4991972;28;20014;-77
2021/10/23 11:45:49;;;;;;;6.95;3.17;;;12.80;99.90;;;;;;4991264;28;20018;-78
2021/10/23 11:48:18;;;;;;;12.38;3.50;;;12.80;99.90;;;;;;4992262;28;20375;-77
2021/10/23 11:50:49;;;;;;;11.13;4.40;;;12.80;99.90;;;;;;5006848;28;20054;-77
2021/10/23 11:53:23;;;;;;;10.18;3.30;;;12.80;99.90;;;;;;4992240;28;20499;-77
2021/10/23 11:56:00;;;;;;;9.75;3.13;;;12.80;99.90;;;;;;4992595;28;20034;-77
2021/10/23 11:58:30;;;;;;;6.78;2.95;;;12.90;99.90;;;;;;4991726;28;20105;-76
2021/10/23 12:01:01;;;;;;;8.07;2.60;;;12.90;99.90;;;;;;4992466;28;20050;-76
2021/10/23 12:03:34;;;;;;;;;;;13.00;99.90;;;;;;5007190;28;20121;-76
2021/10/23 12:06:25;;;;;;;6.15;2.28;;;13.00;99.90;;;;;;4991182;28;19902;-76
2021/10/23 12:08:52;;;;;;;7.63;2.75;;;13.10;99.90;;;;;;4992456;28;20027;-76
2021/10/23 12:11:19;;;;;;;9.07;3.08;;;13.10;99.90;;;;;;4992088;28;20026;-76
2021/10/23 12:14:04;;;;;;;8.32;2.80;;;13.10;99.90;;;;;;4991539;28;20363;-76
2021/10/23 12:16:31;;;;;;;6.80;2.05;;;13.10;99.90;;;;;;4991657;28;20022;-76
2021/10/23 12:19:09;;;;;;;6.40;2.60;;;13.20;99.90;;;;;;4990893;28;20360;-75
2021/10/23 12:22:03;;;;;;;12.60;4.20;;;13.10;99.90;;;;;;4991160;28;20065;-75
2021/10/23 12:24:38;;;;;;;8.70;3.60;;;13.10;99.90;;;;;;5007134;28;20386;-76
2021/10/23 12:27:11;;;;;;;14.55;3.97;;;13.10;99.90;;;;;;4992387;28;20064;-76
2021/10/23 12:29:43;;;;;;;9.68;3.50;;;13.00;99.90;;;;;;4999717;28;20034;-77
2021/10/23 12:32:10;;;;;;;11.15;3.97;;;13.00;99.90;;;;;;5002975;28;20026;-77
2021/10/23 12:34:51;;;;;;;11.68;3.17;;;13.00;99.90;;;;;;5003425;28;20072;-78
2021/10/23 12:37:34;;;;;;;9.40;3.22;;;13.00;99.90;;;;;;5006507;28;20050;-77
2021/10/23 12:40:22;;;;;;;9.70;3.80;;;13.10;99.90;;;;;;4995862;28;20030;-79
2021/10/23 12:42:57;;;;;;;11.68;4.32;;;13.10;99.90;;;;;;4994805;28;20471;-78
2021/10/23 12:45:25;;;;;;;7.90;3.08;;;13.00;99.90;;;;;;4995205;28;20025;-79
2021/10/23 12:47:54;;;;;;;9.55;3.55;;;13.00;99.90;;;;;;4995008;28;20031;-78
2021/10/23 12:50:22;;;;;;;12.65;4.63;;;13.10;99.90;;;;;;5010663;28;20258;-79
2021/10/23 12:52:50;;;;;;;10.40;4.15;;;13.10;99.90;;;;;;5010410;28;20462;-78
2021/10/23 12:55:16;;;;;;;9.52;3.60;;;13.10;99.90;;;;;;4995423;28;20026;-79
2021/10/23 12:57:42;;;;;;;14.43;4.70;;;13.10;99.90;;;;;;5009769;28;20102;-78
2021/10/23 13:00:09;;;;;;;11.55;4.90;;;13.00;99.90;;;;;;4995328;28;20121;-79
2021/10/23 13:02:35;;;;;;;15.45;5.05;;;13.00;99.90;;;;;;4994714;28;20538;-79
2021/10/23 13:05:02;;;;;;;13.82;4.82;;;13.00;99.90;;;;;;4993807;28;20110;-79
2021/10/23 13:07:27;;;;;;;11.20;4.35;;;13.00;99.90;;;;;;4994606;28;20027;-78
2021/10/23 13:09:53;;;;;;;8.45;3.28;;;13.00;99.90;;;;;;4995096;28;20033;-79